createdAt,value
2023-12-27T00:01:43.448Z,86.06
2023-12-27T00:04:10.586Z,85.78
2023-12-27T00:06:37.471Z,85.94
2023-12-27T00:09:04.630Z,86.38
2023-12-27T00:11:31.554Z,86.25
2023-12-27T00:13:58.324Z,86.19
2023-12-27T00:16:25.236Z,86.41
2023-12-27T00:18:52.064Z,86.29
2023-12-27T00:21:18.925Z,86.46
2023-12-27T00:23:45.723Z,86.00
2023-12-27T00:26:12.576Z,86.48
2023-12-27T00:28:40.049Z,85.88
2023-12-27T00:31:06.840Z,85.57
2023-12-27T00:33:33.860Z,84.95
2023-12-27T00:36:00.701Z,84.80
2023-12-27T00:38:27.524Z,85.17
2023-12-27T00:40:54.135Z,85.21
2023-12-27T00:43:20.774Z,84.26
2023-12-27T00:45:47.370Z,84.26
2023-12-27T00:48:14.061Z,84.20
2023-12-27T00:50:41.786Z,84.05
2023-12-27T00:53:08.679Z,84.26
2023-12-27T00:55:35.338Z,84.93
2023-12-27T00:58:02.148Z,84.94
2023-12-27T01:00:28.880Z,84.62
2023-12-27T01:02:55.674Z,84.16
2023-12-27T01:05:22.474Z,84.27
2023-12-27T01:07:49.102Z,84.34
2023-12-27T01:10:17.132Z,84.34
2023-12-27T01:12:43.740Z,84.25
2023-12-27T01:15:10.707Z,84.65
2023-12-27T01:17:37.345Z,83.99
2023-12-27T01:20:07.589Z,84.35
2023-12-27T01:22:34.185Z,84.65
2023-12-27T01:25:00.738Z,84.47
2023-12-27T01:27:27.404Z,84.85
2023-12-27T01:29:54.923Z,84.99
2023-12-27T01:32:22.637Z,84.78
2023-12-27T01:34:49.615Z,84.74
2023-12-27T01:37:16.297Z,85.09
2023-12-27T01:39:43.013Z,85.17
2023-12-27T01:42:09.697Z,84.98
2023-12-27T01:44:37.190Z,84.96
2023-12-27T01:47:06.300Z,85.25
2023-12-27T01:49:33.141Z,85.25
2023-12-27T01:51:59.820Z,85.16
2023-12-27T01:54:26.661Z,86.19
2023-12-27T01:56:53.730Z,85.74
2023-12-27T01:59:20.311Z,85.71
2023-12-27T02:01:46.900Z,85.32
2023-12-27T02:04:13.770Z,85.95
2023-12-27T02:06:41.179Z,86.28
2023-12-27T02:09:07.898Z,85.18
2023-12-27T02:11:34.654Z,85.90
2023-12-27T02:14:01.671Z,86.36
2023-12-27T02:16:28.769Z,86.10
2023-12-27T02:18:55.602Z,86.19
2023-12-27T02:21:23.170Z,85.82
2023-12-27T02:23:53.169Z,85.58
2023-12-27T02:26:20.752Z,85.15
2023-12-27T02:28:47.423Z,85.24
2023-12-27T02:31:14.520Z,85.47
2023-12-27T02:33:42.814Z,85.34
2023-12-27T02:36:09.705Z,87.88
2023-12-27T02:38:36.343Z,89.23
2023-12-27T02:41:04.619Z,89.76
2023-12-27T02:43:31.271Z,90.23
2023-12-27T02:45:58.597Z,90.02
2023-12-27T02:48:25.513Z,88.57
2023-12-27T02:50:52.414Z,88.80
2023-12-27T02:53:19.211Z,88.92
2023-12-27T02:55:46.228Z,88.40
2023-12-27T02:58:13.605Z,87.25
2023-12-27T03:00:41.173Z,86.92
2023-12-27T03:03:08.070Z,87.07
2023-12-27T03:05:34.875Z,87.47
2023-12-27T03:08:01.905Z,87.25
2023-12-27T03:10:28.693Z,86.83
2023-12-27T03:12:56.211Z,86.91
2023-12-27T03:15:25.068Z,88.78
2023-12-27T03:17:52.024Z,88.08
2023-12-27T03:20:25.440Z,87.93
2023-12-27T03:22:52.280Z,87.25
2023-12-27T03:25:18.908Z,87.52
2023-12-27T03:27:45.532Z,87.56
2023-12-27T03:30:13.149Z,87.51
2023-12-27T03:32:43.441Z,87.81
2023-12-27T03:35:10.291Z,87.89
2023-12-27T03:37:37.080Z,87.61
2023-12-27T03:40:07.159Z,87.72
2023-12-27T03:42:33.994Z,88.19
2023-12-27T03:45:07.425Z,88.25
2023-12-27T03:47:34.157Z,87.58
2023-12-27T03:50:03.578Z,87.07
2023-12-27T03:52:31.022Z,87.53
2023-12-27T03:54:57.944Z,87.08
2023-12-27T03:57:24.939Z,87.15
2023-12-27T03:59:51.867Z,87.23
2023-12-27T04:02:18.736Z,87.21
2023-12-27T04:04:47.875Z,86.91
2023-12-27T04:07:15.139Z,88.02
2023-12-27T04:09:42.431Z,88.39
2023-12-27T04:12:09.487Z,88.42
2023-12-27T04:14:36.778Z,88.40
2023-12-27T04:17:05.393Z,88.48
2023-12-27T04:19:32.125Z,88.01
2023-12-27T04:21:58.890Z,87.78
2023-12-27T04:24:26.371Z,87.73
2023-12-27T04:26:53.102Z,87.88
2023-12-27T04:29:19.976Z,88.06
2023-12-27T04:31:46.933Z,88.50
2023-12-27T04:34:13.723Z,88.92
2023-12-27T04:36:47.852Z,88.62
2023-12-27T04:39:14.872Z,88.90
2023-12-27T04:41:42.888Z,89.65
2023-12-27T04:44:10.537Z,88.10
2023-12-27T04:46:40.402Z,88.13
2023-12-27T04:49:07.549Z,88.09
2023-12-27T04:51:34.205Z,87.94
2023-12-27T04:54:00.774Z,88.30
2023-12-27T04:56:27.421Z,88.30
2023-12-27T04:58:54.175Z,87.90
2023-12-27T05:01:21.369Z,88.21
2023-12-27T05:03:48.336Z,88.12
2023-12-27T05:06:15.271Z,87.61
2023-12-27T05:08:42.894Z,87.81
2023-12-27T05:11:13.426Z,88.26
2023-12-27T05:13:41.384Z,88.36
2023-12-27T05:16:17.425Z,88.12
2023-12-27T05:18:46.217Z,87.93
2023-12-27T05:21:14.982Z,88.04
2023-12-27T05:23:41.583Z,89.08
2023-12-27T05:26:08.408Z,87.74
2023-12-27T05:28:36.599Z,87.84
2023-12-27T05:31:03.337Z,87.52
2023-12-27T05:33:31.404Z,87.64
2023-12-27T05:35:58.683Z,87.30
2023-12-27T05:38:25.494Z,87.65
2023-12-27T05:40:52.231Z,87.98
2023-12-27T05:43:20.224Z,87.67
2023-12-27T05:45:46.838Z,87.87
2023-12-27T05:48:13.672Z,87.93
2023-12-27T05:50:40.502Z,87.63
2023-12-27T05:53:07.161Z,87.58
2023-12-27T05:55:34.023Z,87.57
2023-12-27T05:58:01.169Z,87.45
2023-12-27T06:00:27.989Z,87.98
2023-12-27T06:02:54.923Z,88.41
2023-12-27T06:05:25.553Z,87.54
2023-12-27T06:07:52.633Z,87.76
2023-12-27T06:10:19.267Z,87.76
2023-12-27T06:12:50.415Z,87.77
2023-12-27T06:15:17.146Z,88.90
2023-12-27T06:17:44.433Z,88.86
2023-12-27T06:20:11.736Z,91.77
2023-12-27T06:22:41.981Z,90.21
2023-12-27T06:25:09.894Z,92.23
2023-12-27T06:27:37.739Z,92.33
2023-12-27T06:30:13.468Z,91.89
2023-12-27T06:32:41.910Z,91.56
2023-12-27T06:35:08.814Z,91.15
2023-12-27T06:37:39.507Z,91.34
2023-12-27T06:40:08.006Z,90.78
2023-12-27T06:42:38.582Z,90.91
2023-12-27T06:45:10.680Z,90.20
2023-12-27T06:50:18.868Z,90.47
2023-12-27T06:55:28.584Z,91.65
2023-12-27T06:57:57.277Z,91.81
2023-12-27T07:00:24.218Z,91.26
2023-12-27T07:02:58.746Z,90.48
2023-12-27T07:08:22.291Z,89.35
2023-12-27T07:14:03.036Z,90.55
2023-12-27T07:16:31.938Z,90.91
2023-12-27T07:21:51.015Z,90.17
2023-12-27T07:24:18.392Z,91.13
2023-12-27T07:26:45.536Z,90.82
2023-12-27T07:29:12.972Z,91.99
2023-12-27T07:31:39.775Z,91.97
2023-12-27T07:34:06.833Z,91.39
2023-12-27T07:36:34.770Z,90.75
2023-12-27T07:39:01.895Z,90.58
2023-12-27T07:41:28.737Z,91.46
2023-12-27T07:43:55.578Z,90.91
2023-12-27T07:46:22.442Z,91.84
2023-12-27T07:48:51.112Z,91.63
2023-12-27T07:51:19.185Z,91.86
2023-12-27T07:53:46.147Z,92.39
2023-12-27T07:56:13.935Z,91.84
2023-12-27T07:58:40.758Z,92.12
2023-12-27T08:01:08.126Z,91.97
2023-12-27T08:03:36.392Z,91.94
2023-12-27T08:06:03.490Z,91.62
2023-12-27T08:08:30.332Z,91.82
2023-12-27T08:10:57.889Z,91.55
2023-12-27T08:13:24.729Z,91.49
2023-12-27T08:15:52.584Z,91.54
2023-12-27T08:18:20.185Z,91.30
2023-12-27T08:20:47.052Z,91.44
2023-12-27T08:23:15.097Z,91.47
2023-12-27T08:25:41.867Z,91.45
2023-12-27T08:28:09.709Z,90.90
2023-12-27T08:30:36.966Z,91.10
2023-12-27T08:33:12.793Z,91.15
2023-12-27T08:35:39.898Z,91.01
2023-12-27T08:38:07.053Z,91.01
2023-12-27T08:40:34.019Z,91.19
2023-12-27T08:43:00.751Z,90.90
2023-12-27T08:45:31.319Z,90.54
2023-12-27T08:47:59.319Z,90.97
2023-12-27T08:50:26.368Z,90.89
2023-12-27T08:52:53.342Z,90.65
2023-12-27T08:55:27.077Z,90.91
2023-12-27T08:57:54.483Z,90.59
2023-12-27T09:00:23.081Z,90.64
2023-12-27T09:02:49.911Z,90.14
2023-12-27T09:05:16.973Z,90.01
2023-12-27T09:07:43.885Z,90.71
2023-12-27T09:10:12.013Z,90.58
2023-12-27T09:12:43.658Z,90.84
2023-12-27T09:15:14.016Z,89.95
2023-12-27T09:17:40.976Z,89.99
2023-12-27T09:20:09.711Z,90.39
2023-12-27T09:22:38.007Z,89.90
2023-12-27T09:25:07.812Z,89.74
2023-12-27T09:27:37.722Z,90.29
2023-12-27T09:30:06.161Z,90.94
2023-12-27T09:32:33.538Z,89.63
2023-12-27T09:35:00.466Z,90.30
2023-12-27T09:37:27.290Z,89.69
2023-12-27T09:39:54.179Z,90.20
2023-12-27T09:42:20.917Z,89.56
2023-12-27T09:44:49.722Z,90.64
2023-12-27T09:47:17.566Z,90.00
2023-12-27T09:49:46.647Z,90.05
2023-12-27T09:52:15.652Z,90.04
2023-12-27T09:54:42.522Z,89.54
2023-12-27T09:57:10.016Z,89.43
2023-12-27T09:59:42.367Z,89.40
2023-12-27T10:02:16.780Z,88.90
2023-12-27T10:05:12.685Z,89.16
2023-12-27T10:07:42.354Z,88.88
2023-12-27T10:10:20.441Z,88.65
2023-12-27T10:12:53.250Z,88.52
2023-12-27T10:15:20.989Z,88.99
2023-12-27T10:17:48.716Z,88.84
2023-12-27T10:20:32.285Z,88.12
2023-12-27T10:23:00.243Z,88.25
2023-12-27T10:25:30.087Z,87.79
2023-12-27T10:27:57.693Z,87.30
2023-12-27T10:30:24.852Z,86.74
2023-12-27T10:32:58.264Z,87.08
2023-12-27T10:35:25.165Z,86.64
2023-12-27T10:38:02.192Z,86.19
2023-12-27T10:40:29.251Z,86.09
2023-12-27T10:42:55.844Z,86.09
2023-12-27T10:45:22.846Z,85.74
2023-12-27T10:47:50.631Z,85.74
2023-12-27T10:50:32.059Z,85.08
2023-12-27T10:53:04.901Z,84.69
2023-12-27T10:55:34.541Z,84.45
2023-12-27T10:58:04.542Z,84.27
2023-12-27T11:00:32.535Z,83.64
2023-12-27T11:03:01.234Z,83.55
2023-12-27T11:05:30.572Z,83.17
2023-12-27T11:07:58.373Z,83.29
2023-12-27T11:10:29.312Z,83.26
2023-12-27T11:13:01.342Z,83.42
2023-12-27T11:15:31.480Z,82.03
2023-12-27T11:18:02.778Z,82.72
2023-12-27T11:20:31.238Z,81.56
2023-12-27T11:22:58.727Z,81.90
2023-12-27T11:25:26.335Z,82.01
2023-12-27T11:28:00.054Z,81.54
2023-12-27T11:30:28.327Z,81.80
2023-12-27T11:32:55.687Z,81.00
2023-12-27T11:35:34.566Z,81.53
2023-12-27T11:38:23.220Z,81.06
2023-12-27T11:40:53.878Z,81.30
2023-12-27T11:43:22.432Z,80.40
2023-12-27T11:46:10.652Z,81.09
2023-12-27T11:48:38.016Z,81.03
2023-12-27T11:51:26.455Z,80.56
2023-12-27T11:53:57.345Z,80.46
2023-12-27T11:56:30.060Z,79.87
2023-12-27T12:01:40.391Z,80.33
2023-12-27T12:04:52.612Z,80.07
2023-12-27T12:07:45.970Z,80.39
2023-12-27T12:10:22.586Z,79.50
2023-12-27T12:12:51.029Z,79.88
2023-12-27T12:15:21.754Z,79.87
2023-12-27T12:20:32.236Z,78.71
2023-12-27T12:23:01.132Z,79.48
2023-12-27T12:25:28.187Z,79.41
2023-12-27T12:27:55.073Z,79.05
2023-12-27T12:30:24.928Z,78.00
2023-12-27T12:32:52.192Z,78.92
2023-12-27T12:35:19.017Z,77.74
2023-12-27T12:37:45.965Z,78.36
2023-12-27T12:40:15.858Z,77.58
2023-12-27T12:42:44.636Z,77.97
2023-12-27T12:45:12.149Z,76.73
2023-12-27T12:47:39.930Z,77.32
2023-12-27T12:52:56.069Z,77.51
2023-12-27T12:55:30.433Z,77.27
2023-12-27T12:58:05.442Z,77.70
2023-12-27T13:00:35.782Z,77.37
2023-12-27T13:03:07.812Z,77.99
2023-12-27T13:05:35.259Z,77.59
2023-12-27T13:08:08.353Z,77.21
2023-12-27T13:10:39.197Z,77.85
2023-12-27T13:13:05.857Z,77.86
2023-12-27T13:15:39.920Z,77.88
2023-12-27T13:18:13.715Z,78.23
2023-12-27T13:20:41.321Z,78.14
2023-12-27T13:23:08.425Z,78.21
2023-12-27T13:25:35.405Z,77.48
2023-12-27T13:28:11.820Z,78.30
2023-12-27T13:30:39.259Z,78.45
2023-12-27T13:33:07.312Z,78.49
2023-12-27T13:35:38.624Z,78.00
2023-12-27T13:38:09.465Z,78.38
2023-12-27T13:40:36.302Z,78.46
2023-12-27T13:48:32.405Z,78.47
2023-12-27T13:53:43.376Z,78.59
2023-12-27T14:09:41.951Z,78.39
2023-12-27T14:17:41.095Z,78.41
2023-12-27T14:22:55.968Z,78.32
2023-12-27T14:25:23.121Z,77.89
2023-12-27T14:27:56.843Z,78.07
2023-12-27T14:30:27.596Z,78.14
2023-12-27T14:35:38.146Z,77.91
2023-12-27T14:38:07.836Z,77.90
2023-12-27T14:40:39.238Z,77.74
2023-12-27T14:43:15.148Z,77.78
2023-12-27T14:45:42.806Z,77.78
2023-12-27T14:48:09.707Z,77.68
2023-12-27T14:50:36.922Z,77.98
2023-12-27T14:53:07.292Z,77.87
2023-12-27T15:01:02.523Z,78.52
2023-12-27T15:03:30.831Z,78.47
2023-12-27T15:06:02.408Z,78.36
2023-12-27T15:08:29.075Z,78.74
2023-12-27T15:10:57.358Z,78.71
2023-12-27T15:13:24.699Z,78.69
2023-12-27T15:15:51.546Z,78.86
2023-12-27T15:18:22.201Z,79.18
2023-12-27T15:20:50.354Z,79.39
2023-12-27T15:23:25.163Z,78.78
2023-12-27T15:25:52.037Z,79.27
2023-12-27T15:28:27.778Z,79.49
2023-12-27T15:30:55.468Z,79.00
2023-12-27T15:33:23.140Z,79.45
2023-12-27T15:35:50.722Z,79.31
2023-12-27T15:38:18.292Z,79.18
2023-12-27T15:40:46.640Z,79.05
2023-12-27T15:43:14.697Z,78.92
2023-12-27T15:45:42.506Z,78.98
2023-12-27T15:48:12.769Z,79.20
2023-12-27T15:50:45.400Z,79.16
2023-12-27T15:53:19.976Z,79.27
2023-12-27T15:55:50.268Z,79.13
2023-12-27T16:00:59.976Z,79.47
2023-12-27T16:03:27.000Z,79.29
2023-12-27T16:06:03.728Z,79.45
2023-12-27T16:08:34.798Z,79.45
2023-12-27T16:11:09.149Z,79.41
2023-12-27T16:13:39.249Z,79.64
2023-12-27T16:16:10.158Z,79.83
2023-12-27T16:18:38.462Z,79.76
2023-12-27T16:23:57.066Z,80.08
2023-12-27T16:26:27.651Z,80.25
2023-12-27T16:28:54.643Z,80.38
2023-12-27T16:31:22.843Z,80.10
2023-12-27T16:33:55.673Z,80.48
2023-12-27T16:36:22.587Z,80.69
2023-12-27T16:38:59.492Z,80.62
2023-12-27T16:41:28.553Z,80.80
2023-12-27T16:43:58.523Z,80.81
2023-12-27T16:46:25.393Z,81.16
2023-12-27T16:48:57.492Z,80.99
2023-12-27T16:51:27.627Z,81.04
2023-12-27T16:53:59.444Z,80.90
2023-12-27T16:56:44.311Z,81.45
2023-12-27T16:59:11.244Z,81.10
2023-12-27T17:01:37.961Z,81.30
2023-12-27T17:04:11.144Z,81.61
2023-12-27T17:06:41.671Z,81.66
2023-12-27T17:09:09.704Z,82.05
2023-12-27T17:11:36.548Z,81.97
2023-12-27T17:14:03.325Z,82.00
2023-12-27T17:16:30.493Z,82.38
2023-12-27T17:18:57.676Z,82.40
2023-12-27T17:21:24.995Z,82.42
2023-12-27T17:23:52.044Z,82.57
2023-12-27T17:26:19.521Z,82.40
2023-12-27T17:28:46.343Z,82.49
2023-12-27T17:31:13.271Z,82.87
2023-12-27T17:33:40.628Z,82.79
2023-12-27T17:36:08.032Z,83.10
2023-12-27T17:38:35.432Z,83.86
2023-12-27T17:41:02.991Z,83.87
2023-12-27T17:43:30.822Z,83.91
2023-12-27T17:45:59.363Z,83.30
2023-12-27T17:48:26.310Z,83.34
2023-12-27T17:50:53.368Z,83.28
2023-12-27T17:53:22.763Z,83.37
2023-12-27T17:55:51.985Z,83.12
2023-12-27T17:58:18.996Z,83.72
2023-12-27T18:00:47.278Z,83.51
2023-12-27T18:03:17.225Z,83.21
2023-12-27T18:05:45.188Z,83.28
2023-12-27T18:08:13.047Z,81.83
2023-12-27T18:10:39.941Z,81.20
2023-12-27T18:13:07.525Z,81.55
2023-12-27T18:15:35.440Z,81.20
2023-12-27T18:18:02.376Z,81.15
2023-12-27T18:20:29.339Z,81.19
2023-12-27T18:22:56.286Z,80.99
2023-12-27T18:25:23.407Z,80.64
2023-12-27T18:27:50.683Z,80.61
2023-12-27T18:30:17.647Z,80.55
2023-12-27T18:32:45.645Z,80.59
2023-12-27T18:35:12.728Z,80.35
2023-12-27T18:37:41.852Z,80.66
2023-12-27T18:40:09.053Z,80.60
2023-12-27T18:42:36.008Z,80.78
2023-12-27T18:45:02.925Z,80.39
2023-12-27T18:47:29.620Z,80.18
2023-12-27T18:49:56.515Z,80.42
2023-12-27T18:52:23.595Z,80.17
2023-12-27T18:54:54.719Z,79.31
2023-12-27T18:57:23.282Z,79.72
2023-12-27T18:59:55.131Z,78.95
2023-12-27T19:02:24.427Z,77.94
2023-12-27T19:04:56.701Z,78.18
2023-12-27T19:07:23.402Z,77.77
2023-12-27T19:09:50.155Z,77.83
2023-12-27T19:12:17.690Z,77.51
2023-12-27T19:14:44.785Z,76.08
2023-12-27T19:17:15.429Z,75.21
2023-12-27T19:19:49.394Z,74.94
2023-12-27T19:33:01.487Z,71.71
2023-12-27T19:35:33.717Z,72.33
2023-12-27T19:38:03.185Z,72.44
2023-12-27T19:40:38.112Z,72.49
2023-12-27T19:43:06.240Z,72.91
2023-12-27T19:45:34.315Z,73.59
2023-12-27T19:48:03.087Z,73.85
2023-12-27T19:50:30.113Z,72.73
2023-12-27T19:52:56.836Z,73.79
2023-12-27T19:55:23.979Z,72.33
2023-12-27T19:57:58.531Z,72.00
2023-12-27T20:00:26.359Z,72.30
2023-12-27T20:02:57.304Z,71.64
2023-12-27T20:05:31.434Z,71.91
2023-12-27T20:07:59.483Z,71.78
2023-12-27T20:10:26.404Z,70.93
2023-12-27T20:12:53.670Z,71.38
2023-12-27T20:15:29.654Z,69.12
2023-12-27T20:17:57.284Z,68.89
2023-12-27T20:20:25.208Z,68.83
2023-12-27T20:22:52.904Z,69.10
2023-12-27T20:25:27.216Z,68.05
2023-12-27T20:27:54.432Z,69.07
2023-12-27T20:30:21.808Z,68.77
2023-12-27T20:32:50.940Z,68.63
2023-12-27T20:35:17.875Z,68.37
2023-12-27T20:37:46.991Z,69.00
2023-12-27T20:40:15.360Z,67.97
2023-12-27T20:42:42.242Z,68.19
2023-12-27T20:45:10.406Z,68.54
2023-12-27T20:47:38.181Z,67.83
2023-12-27T20:50:05.481Z,67.96
2023-12-27T20:52:32.982Z,68.13
2023-12-27T20:55:02.023Z,67.48
2023-12-27T20:57:32.811Z,67.85
2023-12-27T20:59:59.773Z,67.74
2023-12-27T21:02:28.174Z,67.90
2023-12-27T21:04:58.463Z,68.25
2023-12-27T21:07:25.912Z,66.91
2023-12-27T21:09:55.788Z,66.53
2023-12-27T21:12:23.046Z,66.50
2023-12-27T21:14:51.143Z,66.62
2023-12-27T21:17:17.913Z,66.63
2023-12-27T21:19:45.652Z,66.44
2023-12-27T21:22:14.646Z,66.73
2023-12-27T21:27:33.943Z,66.33
2023-12-27T21:35:28.150Z,66.07
2023-12-27T21:37:55.252Z,66.56
2023-12-27T21:40:22.202Z,66.22
2023-12-27T21:42:49.084Z,65.66
2023-12-27T21:45:17.314Z,65.77
2023-12-27T21:47:44.236Z,65.79
2023-12-27T21:50:12.499Z,65.05
2023-12-27T21:52:40.632Z,65.44
2023-12-27T21:55:09.882Z,65.11
2023-12-27T21:57:36.651Z,65.33
2023-12-27T22:00:05.925Z,65.88
2023-12-27T22:02:33.723Z,65.33
2023-12-27T22:05:02.343Z,65.87
2023-12-27T22:07:29.000Z,65.40
2023-12-27T22:09:57.308Z,65.58
2023-12-27T22:12:24.115Z,66.02
2023-12-27T22:14:55.155Z,65.59
2023-12-27T22:17:25.159Z,66.33
2023-12-27T22:19:55.521Z,65.48
2023-12-27T22:22:29.321Z,66.04
2023-12-27T22:24:56.059Z,65.70
2023-12-27T22:27:22.934Z,65.85
2023-12-27T22:29:49.921Z,66.07
2023-12-27T22:32:16.668Z,65.41
2023-12-27T22:34:45.215Z,66.10
2023-12-27T22:37:12.384Z,65.62
2023-12-27T22:39:39.614Z,65.32
2023-12-27T22:42:06.454Z,65.60
2023-12-27T22:44:34.409Z,66.34
2023-12-27T22:47:01.091Z,65.78
2023-12-27T22:49:31.720Z,65.77
2023-12-27T22:51:59.996Z,65.94
2023-12-27T22:57:08.742Z,66.47
2023-12-27T22:59:37.698Z,66.85
2023-12-27T23:02:06.946Z,67.01
2023-12-27T23:04:34.233Z,67.55
2023-12-27T23:07:02.095Z,67.70
2023-12-27T23:09:29.145Z,67.58
2023-12-27T23:11:57.087Z,68.37
2023-12-27T23:14:28.368Z,68.54
2023-12-27T23:16:56.107Z,68.47
2023-12-27T23:19:26.090Z,68.80
2023-12-27T23:21:53.149Z,69.07
2023-12-27T23:24:20.000Z,68.68
2023-12-27T23:26:46.713Z,69.04
2023-12-27T23:29:15.622Z,69.06
2023-12-27T23:31:42.586Z,68.89
2023-12-27T23:34:09.493Z,69.24
2023-12-27T23:36:37.274Z,69.40
2023-12-27T23:39:07.014Z,69.34
2023-12-27T23:41:34.001Z,69.96
2023-12-27T23:44:00.733Z,71.24
2023-12-27T23:46:27.405Z,72.89
2023-12-27T23:48:54.177Z,72.95
2023-12-27T23:51:21.169Z,73.12
2023-12-27T23:53:48.144Z,73.65
2023-12-27T23:56:17.150Z,73.23
2023-12-27T23:59:00.453Z,73.83
